Time;durP1;ratioP1;P1;durP2;ratioP2;P2;SDS_P1;SDS_P2;PMS_P1;PMS_P2;Temp;Humidity;BMP_temperature;BMP_pressure;BME280_temperature;BME280_humidity;BME280_pressure;Samples;Min_cycle;Max_cycle;Signal;HPM_P1;HPM_P2
2022/04/19 00:00:12;;;;;;;10.70;5.53;;;;;;;10.37;41.73;100073.03;5399175;32;34974;-66
2022/04/19 00:03:15;;;;;;;10.53;5.13;;;;;;;10.28;41.98;100079.53;5414121;32;34245;-68
2022/04/19 00:06:17;;;;;;;11.07;5.77;;;;;;;10.10;42.74;100075.88;5397238;32;34727;-65
2022/04/19 00:09:19;;;;;;;10.13;5.50;;;;;;;9.84;43.17;100074.34;5399847;32;34719;-66
2022/04/19 00:12:22;;;;;;;19.90;6.13;;;;;;;9.91;42.61;100070.53;5407213;32;44542;-66
2022/04/19 00:15:27;;;;;;;9.70;5.30;;;;;;;8.85;45.38;100065.97;5409370;32;34728;-65
2022/04/19 00:18:29;;;;;;;10.87;5.37;;;;;;;9.05;45.32;100073.09;5421034;32;34261;-66
2022/04/19 00:21:31;;;;;;;9.50;5.30;;;;;;;10.11;42.01;100063.59;5393003;32;34738;-67
2022/04/19 00:24:33;;;;;;;10.60;5.47;;;;;;;10.65;40.97;100062.19;5420962;32;35341;-67
2022/04/19 00:27:35;;;;;;;10.57;5.00;;;;;;;9.43;44.03;100047.16;5393445;32;35224;-69
2022/04/19 00:30:38;;;;;;;10.10;5.23;;;;;;;9.57;43.29;100036.09;5402790;32;34670;-66
2022/04/19 00:33:44;;;;;;;11.90;6.20;;;;;;;9.57;43.65;100049.22;5419921;32;34772;-68
2022/04/19 00:36:46;;;;;;;10.80;5.23;;;;;;;10.29;41.50;100040.06;5403837;32;34634;-69
2022/04/19 00:39:48;;;;;;;9.93;5.30;;;;;;;9.21;43.94;100039.28;5410644;32;34780;-66
2022/04/19 00:42:52;;;;;;;10.30;5.20;;;;;;;9.30;44.23;100030.19;5414417;32;35038;-68
2022/04/19 00:45:55;;;;;;;11.37;5.40;;;;;;;8.80;45.57;100030.37;5386738;32;44671;-68
2022/04/19 00:48:57;;;;;;;10.47;5.50;;;;;;;9.47;43.91;100026.00;5409747;32;35542;-66
2022/04/19 00:52:00;;;;;;;11.87;5.63;;;;;;;10.34;41.83;100021.50;5394445;32;33910;-70
2022/04/19 00:55:04;;;;;;;10.00;5.13;;;;;;;10.56;40.97;100010.88;5428013;32;34364;-68
2022/04/19 00:58:07;;;;;;;10.00;5.30;;;;;;;10.03;42.34;100011.41;5371389;32;34677;-66
2022/04/19 01:01:09;;;;;;;11.45;4.68;;;;;;;9.44;43.42;100007.75;5409989;32;34868;-67
2022/04/19 01:04:11;;;;;;;10.13;5.00;;;;;;;10.35;41.35;100009.19;5408282;32;34821;-68
2022/04/19 01:07:14;;;;;;;13.20;4.80;;;;;;;9.55;43.05;100019.59;5406969;32;34181;-66
2022/04/19 01:10:16;;;;;;;10.70;5.07;;;;;;;10.23;41.52;100011.44;5414333;32;34527;-65
2022/04/19 01:13:18;;;;;;;11.00;5.20;;;;;;;10.14;41.65;100009.19;5394048;32;34287;-69
2022/04/19 01:16:21;;;;;;;9.97;5.13;;;;;;;9.90;42.31;100007.59;5418946;32;44481;-67
2022/04/19 01:19:24;;;;;;;8.73;4.83;;;;;;;10.19;41.62;100007.22;5394632;32;34477;-65
2022/04/19 01:22:26;;;;;;;9.13;4.73;;;;;;;9.80;42.43;100014.19;5412676;32;34246;-68
2022/04/19 01:25:28;;;;;;;9.83;4.53;;;;;;;8.61;45.36;100015.31;5401668;32;34724;-66
2022/04/19 01:28:30;;;;;;;9.87;4.67;;;;;;;8.71;44.98;100004.53;5412113;32;34967;-69
2022/04/19 01:31:32;;;;;;;9.77;4.97;;;;;;;8.19;46.06;100002.00;5399810;32;35566;-66
2022/04/19 01:34:34;;;;;;;8.93;4.47;;;;;;;8.62;45.06;100003.94;5402960;32;34258;-67
2022/04/19 01:37:37;;;;;;;9.50;4.20;;;;;;;8.77;44.47;99994.66;5430278;32;34549;-66
2022/04/19 01:40:39;;;;;;;7.47;4.15;;;;;;;9.21;43.49;99989.47;5397681;32;34162;-66
2022/04/19 01:43:44;;;;;;;9.37;4.77;;;;;;;8.92;44.23;99994.06;5419369;32;34774;-68
2022/04/19 01:46:46;;;;;;;8.23;4.33;;;;;;;8.68;44.69;99995.00;5401773;32;34668;-67
2022/04/19 01:49:48;;;;;;;8.27;4.30;;;;;;;8.44;45.10;99994.16;5420161;32;34983;-68
2022/04/19 01:52:50;;;;;;;7.93;4.30;;;;;;;8.83;44.15;99990.97;5408270;32;35115;-68
2022/04/19 01:55:52;;;;;;;8.63;4.20;;;;;;;8.40;44.79;99982.91;5383853;32;44041;-68
2022/04/19 01:58:54;;;;;;;8.50;4.50;;;;;;;8.18;45.52;99991.56;5411857;32;35616;-68
2022/04/19 02:01:56;;;;;;;8.93;4.70;;;;;;;8.07;45.70;99990.19;5404431;32;36402;-66
2022/04/19 02:04:59;;;;;;;8.30;4.53;;;;;;;9.11;43.21;99985.50;5422169;32;34959;-68
2022/04/19 02:08:01;;;;;;;9.60;4.23;;;;;;;9.53;42.17;99985.50;5402351;32;35394;-67
2022/04/19 02:11:03;;;;;;;8.67;4.63;;;;;;;8.58;44.16;99977.94;5414577;32;35361;-67
2022/04/19 02:14:06;;;;;;;7.97;4.13;;;;;;;8.37;44.52;99979.53;5417007;32;34843;-66
2022/04/19 02:17:09;;;;;;;8.67;4.57;;;;;;;8.70;44.35;99976.63;5399345;32;34800;-66
2022/04/19 02:20:13;;;;;;;8.80;4.33;;;;;;;9.78;41.24;99970.44;5402249;32;34654;-68
2022/04/19 02:23:15;;;;;;;9.33;4.33;;;;;;;8.44;44.35;99967.97;5379456;32;37006;-65
2022/04/19 02:26:19;;;;;;;9.27;4.40;;;;;;;9.60;41.61;99971.25;5409713;32;33882;-67
2022/04/19 02:29:25;;;;;;;8.37;3.90;;;;;;;9.94;40.85;99959.31;5395418;32;44740;-66
2022/04/19 02:32:27;;;;;;;10.53;4.73;;;;;;;9.69;40.96;99962.97;5399676;32;34341;-66
2022/04/19 02:35:31;;;;;;;8.87;4.07;;;;;;;9.69;41.29;99960.34;5404612;32;35467;-66
2022/04/19 02:38:35;;;;;;;8.20;3.93;;;;;;;10.03;40.46;99956.28;5391929;32;36278;-67
2022/04/19 02:41:39;;;;;;;8.20;3.97;;;;;;;8.99;43.20;99963.22;5406014;32;34586;-68
2022/04/19 02:44:41;;;;;;;8.10;3.80;;;;;;;9.25;42.22;99969.19;5392361;32;35249;-68
2022/04/19 02:47:43;;;;;;;7.30;3.87;;;;;;;9.21;42.47;99968.50;5412940;32;34190;-66
2022/04/19 02:50:45;;;;;;;8.93;4.10;;;;;;;9.75;40.74;99964.50;5397560;32;35698;-66
2022/04/19 02:53:47;;;;;;;7.77;3.90;;;;;;;8.09;44.22;99974.44;5404914;32;35323;-66
2022/04/19 02:56:50;;;;;;;7.53;3.60;;;;;;;9.25;41.68;99970.06;5392397;32;35448;-66
2022/04/19 02:59:53;;;;;;;12.30;4.40;;;;;;;9.71;40.49;99961.13;5399953;32;45135;-66
2022/04/19 03:02:55;;;;;;;9.40;4.78;;;;;;;8.62;43.31;99969.87;5420326;32;35103;-66
2022/04/19 03:05:57;;;;;;;9.30;4.37;;;;;;;8.05;45.60;99972.81;5395019;32;34974;-65
2022/04/19 03:08:59;;;;;;;10.50;4.40;;;;;;;7.49;47.11;99984.31;5418853;32;34617;-66
2022/04/19 03:12:03;;;;;;;10.43;4.10;;;;;;;7.26;48.40;99986.81;5396630;32;34204;-66
2022/04/19 03:15:05;;;;;;;10.15;4.60;;;;;;;7.46;47.79;99981.78;5395447;32;34274;-66
2022/04/19 03:18:07;;;;;;;9.23;4.73;;;;;;;7.47;48.13;99980.91;5409700;32;35410;-66
2022/04/19 03:21:10;;;;;;;11.93;4.97;;;;;;;7.11;49.29;99984.69;5391047;32;36349;-68
2022/04/19 03:27:42;;;;;;;9.33;5.20;;;;;;;7.15;49.30;99979.34;5407965;32;34714;-66
2022/04/19 03:30:44;;;;;;;12.20;5.10;;;;;;;6.91;50.32;99980.94;5400699;32;34786;-66
2022/04/19 03:33:49;;;;;;;8.00;4.83;;;;;;;7.70;48.63;99963.59;5418022;32;34339;-67
2022/04/19 03:36:52;;;;;;;8.10;4.17;;;;;;;7.69;48.33;99964.50;5395810;32;44658;-66
2022/04/19 03:39:54;;;;;;;10.30;5.03;;;;;;;7.10;49.89;99965.53;5427233;32;34135;-65
2022/04/19 03:42:56;;;;;;;8.67;4.53;;;;;;;6.94;50.36;99975.59;5400022;32;34876;-66
2022/04/19 03:45:59;;;;;;;10.33;4.33;;;;;;;8.26;47.44;99960.75;5409808;32;35044;-68
2022/04/19 03:49:02;;;;;;;7.15;3.72;;;;;;;7.90;47.20;99962.91;5401931;32;35027;-67
2022/04/19 03:52:05;;;;;;;10.23;4.60;;;;;;;9.10;44.14;99955.78;5391854;32;34762;-67
2022/04/19 03:55:08;;;;;;;8.10;3.90;;;;;;;8.66;44.94;99950.50;5401651;32;34060;-67
2022/04/19 03:58:10;;;;;;;10.17;3.97;;;;;;;8.41;45.65;99954.97;5365848;32;34687;-65
2022/04/19 04:01:13;;;;;;;9.77;4.00;;;;;;;9.29;43.72;99955.91;5407217;32;35012;-66
2022/04/19 04:04:15;;;;;;;8.13;3.80;;;;;;;9.16;43.62;99954.69;5404685;32;34283;-68
2022/04/19 04:07:17;;;;;;;9.63;4.60;;;;;;;9.33;43.24;99954.00;5410161;32;35302;-68
2022/04/19 04:10:19;;;;;;;12.53;5.80;;;;;;;9.07;44.17;99953.28;5402586;32;34738;-66
2022/04/19 04:13:21;;;;;;;7.83;3.93;;;;;;;8.94;44.43;99950.28;5402300;32;47197;-68
2022/04/19 04:16:24;;;;;;;8.70;3.97;;;;;;;9.21;43.63;99953.59;5419749;32;35114;-68
2022/04/19 04:19:26;;;;;;;8.87;4.47;;;;;;;9.19;44.08;99963.28;5409296;32;35165;-68
2022/04/19 04:22:28;;;;;;;8.93;4.63;;;;;;;9.10;44.23;99963.66;5416632;32;35377;-68
2022/04/19 04:25:31;;;;;;;9.73;5.57;;;;;;;8.94;44.32;99963.41;5400994;32;34567;-66
2022/04/19 04:28:33;;;;;;;11.23;5.62;;;;;;;7.94;47.32;99965.34;5408511;32;34734;-68
2022/04/19 04:31:36;;;;;;;9.87;4.70;;;;;;;8.52;45.80;99958.06;5399069;32;35258;-68
2022/04/19 04:34:38;;;;;;;9.53;4.97;;;;;;;8.13;46.47;99971.66;5404141;32;34731;-68
2022/04/19 04:37:40;;;;;;;10.77;4.53;;;;;;;7.87;47.21;99969.09;5430595;32;35002;-65
2022/04/19 04:40:42;;;;;;;11.23;4.67;;;;;;;9.07;44.28;99966.38;5390808;32;35713;-65
2022/04/19 04:43:44;;;;;;;7.30;3.80;;;;;;;8.86;44.35;99969.84;5405727;32;34434;-68
2022/04/19 04:50:09;;;;;;;10.50;4.50;;;;;;;8.90;43.84;99974.09;5417281;32;35266;-66
2022/04/19 04:53:11;;;;;;;11.87;5.43;;;;;;;9.09;43.12;99969.81;5426267;32;36101;-68
2022/04/19 04:56:14;;;;;;;9.80;4.90;;;;;;;8.18;45.39;99976.72;5382288;32;37621;-67
2022/04/19 04:59:16;;;;;;;8.90;4.43;;;;;;;8.99;43.22;99975.47;5421865;32;34668;-65
2022/04/19 05:02:18;;;;;;;10.00;4.10;;;;;;;9.61;41.99;99967.72;5401157;32;34805;-68
2022/04/19 05:05:20;;;;;;;8.80;4.47;;;;;;;9.64;41.63;99962.31;5417731;32;34464;-67
2022/04/19 05:08:23;;;;;;;9.10;4.70;;;;;;;8.95;43.26;99972.09;5399342;32;44748;-65
2022/04/19 05:11:25;;;;;;;11.33;5.13;;;;;;;9.28;42.24;99975.19;5391020;32;34835;-68
2022/04/19 05:14:27;;;;;;;8.93;4.10;;;;;;;9.50;41.69;99964.66;5392050;32;34526;-68
2022/04/19 05:17:29;;;;;;;12.63;4.80;;;;;;;9.64;41.05;99974.59;5399469;32;34242;-67
2022/04/19 05:20:31;;;;;;;9.63;4.53;;;;;;;9.44;41.62;99964.91;5417691;32;35424;-65
2022/04/19 05:23:33;;;;;;;8.57;4.33;;;;;;;9.45;41.48;99971.88;5408710;32;35919;-68
2022/04/19 05:26:36;;;;;;;9.60;4.43;;;;;;;9.21;41.41;99964.09;5409548;32;35343;-69
2022/04/19 05:29:39;;;;;;;8.13;4.72;;;;;;;9.61;40.80;99969.47;5384314;32;35180;-66
2022/04/19 05:32:41;;;;;;;8.83;4.23;;;;;;;9.53;40.47;99968.91;5400806;32;34883;-66
2022/04/19 05:35:43;;;;;;;10.80;4.53;;;;;;;9.40;40.88;99969.44;5419272;32;34849;-64
2022/04/19 05:38:45;;;;;;;7.60;4.00;;;;;;;9.58;40.77;99972.22;5396098;32;34951;-68
2022/04/19 05:41:47;;;;;;;9.57;4.47;;;;;;;9.10;41.06;99968.06;5410189;32;35350;-64
2022/04/19 05:44:49;;;;;;;8.43;4.40;;;;;;;9.83;39.93;99964.16;5405502;32;35825;-67
2022/04/19 05:47:52;;;;;;;11.50;3.77;;;;;;;9.77;39.95;99963.50;5415014;32;44554;-63
2022/04/19 05:50:54;;;;;;;8.57;4.20;;;;;;;9.71;39.89;99968.16;5400668;32;35641;-74
2022/04/19 05:53:56;;;;;;;10.43;4.30;;;;;;;9.82;39.66;99972.97;5400347;32;34437;-68
2022/04/19 05:56:58;;;;;;;8.70;4.40;;;;;;;9.62;39.91;99956.28;5377854;32;33221;-68
2022/04/19 06:00:00;;;;;;;9.43;4.37;;;;;;;9.18;41.57;99984.31;5394423;32;35370;-76
2022/04/19 06:06:23;;;;;;;8.77;4.40;;;;;;;9.49;40.70;99978.69;5394145;32;44479;-75
2022/04/19 06:09:26;;;;;;;9.80;4.57;;;;;;;9.64;39.99;99978.06;5419615;32;34582;-71
2022/04/19 06:12:28;;;;;;;9.00;4.37;;;;;;;9.40;41.43;99984.31;5396556;32;34208;-69
2022/04/19 06:15:31;;;;;;;8.77;4.60;;;;;;;9.91;40.28;99975.19;5373219;32;33975;-79
2022/04/19 06:18:34;;;;;;;10.68;4.80;;;;;;;10.56;39.05;99976.69;5421269;32;34072;-68
2022/04/19 06:21:37;;;;;;;10.55;4.37;;;;;;;12.17;35.78;99973.25;5408120;32;34159;-74
2022/04/19 06:24:39;;;;;;;8.07;4.03;;;;;;;11.15;37.14;99977.50;5397737;32;35343;-76
2022/04/19 06:27:41;;;;;;;9.47;4.20;;;;;;;12.47;35.12;99962.00;5393428;32;34125;-72
2022/04/19 06:30:43;;;;;;;8.47;4.20;;;;;;;13.00;34.23;99956.41;5410016;32;35319;-64
2022/04/19 06:33:45;;;;;;;10.07;3.80;;;;;;;14.74;30.66;99960.25;5407304;32;34417;-65
2022/04/19 06:36:48;;;;;;;14.80;4.70;;;;;;;13.23;32.34;99957.81;5402050;32;34249;-73
2022/04/19 06:39:50;;;;;;;7.90;4.10;;;;;;;13.33;33.23;99958.16;5419401;32;35467;-72
2022/04/19 06:42:57;;;;;;;9.97;4.27;;;;;;;14.21;31.42;99953.81;5390938;32;44439;-71
2022/04/19 06:45:59;;;;;;;7.43;3.90;;;;;;;14.84;30.07;99958.75;5413887;32;36455;-70
2022/04/19 06:49:05;;;;;;;11.13;4.70;;;;;;;13.61;31.62;99954.75;5393079;32;34195;-72
2022/04/19 06:52:08;;;;;;;6.63;3.60;;;;;;;14.98;30.25;99949.91;5403202;32;33797;-68
2022/04/19 06:55:10;;;;;;;6.55;4.00;;;;;;;13.90;31.52;99957.44;5385737;32;34924;-68
2022/04/19 06:58:13;;;;;;;6.78;3.80;;;;;;;15.40;29.47;99956.88;5386109;32;34319;-75
2022/04/19 07:01:15;;;;;;;10.07;4.05;;;;;;;15.56;29.04;99946.94;5375474;32;35269;-68
2022/04/19 07:04:17;;;;;;;9.30;3.95;;;;;;;14.31;30.57;99952.34;5409537;32;36076;-81
2022/04/19 07:07:20;;;;;;;6.00;3.55;;;;;;;14.59;29.99;99943.56;5416904;32;35566;-71
2022/04/19 07:10:22;;;;;;;8.07;3.77;;;;;;;16.16;27.64;99943.75;5405795;32;47096;-74
2022/04/19 07:13:24;;;;;;;7.10;3.90;;;;;;;15.59;28.33;99937.97;5412311;32;35726;-71
2022/04/19 07:16:26;;;;;;;7.40;4.03;;;;;;;16.74;26.50;99937.06;5406741;32;34472;-67
2022/04/19 07:26:37;;;;;;;7.50;3.72;;;;;;;14.65;29.64;99951.09;5392428;32;34172;-68
2022/04/19 07:29:36;;;;;;;7.93;4.07;;;;;;;17.49;25.43;99936.00;5389564;32;35954;-73
2022/04/19 07:32:39;;;;;;;6.40;3.65;;;;;;;16.20;27.06;99939.09;5399888;32;33100;-69
2022/04/19 07:35:41;;;;;;;6.23;3.57;;;;;;;17.70;25.05;99942.34;5410975;32;35633;-72
2022/04/19 07:38:44;;;;;;;10.90;4.32;;;;;;;16.73;26.71;99942.47;5420836;32;36063;-74
2022/04/19 07:41:47;;;;;;;9.95;4.07;;;;;;;17.51;25.29;99939.37;5397489;32;34174;-79
2022/04/19 07:44:49;;;;;;;6.47;3.77;;;;;;;16.19;27.58;99937.41;5388736;32;35122;-80
2022/04/19 07:47:52;;;;;;;9.85;4.07;;;;;;;16.98;26.21;99922.97;5385408;32;47049;-71
2022/04/19 07:50:56;;;;;;;8.27;3.83;;;;;;;14.53;30.22;99944.78;5381145;32;34113;-70
2022/04/19 07:53:58;;;;;;;7.62;3.90;;;;;;;16.02;27.98;99935.91;5412303;32;34170;-72
2022/04/19 07:57:01;;;;;;;6.62;3.45;;;;;;;17.21;25.93;99932.75;5388986;32;36209;-76
2022/04/19 08:00:04;;;;;;;6.18;3.53;;;;;;;17.71;25.10;99933.47;5418349;32;35284;-73
2022/04/19 08:03:07;;;;;;;6.62;4.00;;;;;;;15.85;27.48;99937.09;5400061;32;35548;-72
2022/04/19 08:06:09;;;;;;;;;;;;;;;16.30;26.97;99940.19;5419354;32;35484;-78
2022/04/19 08:09:12;;;;;;;9.85;4.55;;;;;;;18.35;24.32;99920.53;5413584;32;35552;-68
2022/04/19 08:12:14;;;;;;;8.27;4.00;;;;;;;17.37;25.61;99936.91;5391292;32;35404;-67
2022/04/19 08:15:16;;;;;;;7.17;4.10;;;;;;;17.52;25.24;99935.78;5423233;32;34122;-68
2022/04/19 08:18:19;;;;;;;7.55;3.90;;;;;;;15.31;28.07;99944.22;5410690;32;34122;-66
2022/04/19 08:21:21;;;;;;;7.57;3.85;;;;;;;17.30;25.64;99937.38;5420632;32;44784;-68
2022/04/19 08:24:23;;;;;;;9.30;4.15;;;;;;;16.60;26.72;99938.97;5382200;32;34184;-74
2022/04/19 08:27:25;;;;;;;6.53;4.10;;;;;;;16.48;26.82;99938.84;5399837;32;33868;-69
2022/04/19 08:30:28;;;;;;;6.78;3.95;;;;;;;17.85;25.07;99930.59;5415125;32;34063;-72
2022/04/19 08:33:30;;;;;;;7.70;3.55;;;;;;;19.75;21.70;99923.34;5406378;32;34325;-69
2022/04/19 08:36:34;;;;;;;7.62;4.12;;;;;;;16.06;26.56;99932.13;5412458;32;35635;-70
2022/04/19 08:39:37;;;;;;;6.55;4.05;;;;;;;16.26;26.73;99928.06;5407327;32;35583;-71
2022/04/19 08:42:41;;;;;;;8.55;4.15;;;;;;;19.02;23.26;99924.09;5405691;32;34145;-65
2022/04/19 08:45:45;;;;;;;6.50;3.67;;;;;;;18.72;23.64;99919.44;5398242;32;35527;-70
2022/04/19 08:48:49;;;;;;;9.55;4.00;;;;;;;20.19;21.26;99916.87;5403461;32;36044;-74
2022/04/19 08:51:52;;;;;;;9.38;4.50;;;;;;;18.35;23.29;99915.22;5399142;32;45230;-76
2022/04/19 08:58:18;;;;;;;15.52;7.40;;;;;;;16.87;25.54;99922.88;5390411;32;37122;-76
2022/04/19 09:01:20;;;;;;;7.43;4.32;;;;;;;18.00;24.10;99917.94;5407592;32;35018;-70
2022/04/19 09:04:22;;;;;;;5.55;3.80;;;;;;;17.38;25.26;99915.53;5404420;32;46460;-75
2022/04/19 09:07:36;;;;;;;6.90;3.95;;;;;;;20.20;20.96;99902.56;5397128;32;34533;-74
2022/04/19 09:10:38;;;;;;;7.65;4.20;;;;;;;15.81;26.32;99908.25;5397920;32;35773;-78
2022/04/19 09:13:41;;;;;;;10.98;4.65;;;;;;;16.15;26.53;99910.25;5418030;32;34315;-71
2022/04/19 09:16:44;;;;;;;8.55;4.50;;;;;;;16.05;26.40;99898.62;5396519;32;35114;-68
2022/04/19 09:19:47;;;;;;;10.98;5.20;;;;;;;16.09;26.48;99899.22;5405080;32;35650;-73
2022/04/19 09:23:03;;;;;;;33.50;6.15;;;;;;;14.52;28.83;99908.72;5396304;32;32815;-69
2022/04/19 09:26:06;;;;;;;7.63;4.43;;;;;;;15.05;28.16;99906.22;5388680;32;34245;-73
2022/04/19 09:29:25;;;;;;;7.87;3.97;;;;;;;15.42;27.69;99902.00;5414960;32;34233;-70
2022/04/19 09:32:27;;;;;;;7.47;4.13;;;;;;;17.62;23.98;99890.75;5405647;32;46339;-70
2022/04/19 09:35:45;;;;;;;9.40;4.10;;;;;;;15.98;26.30;99900.84;5416554;32;34217;-70
2022/04/19 09:38:47;;;;;;;6.20;3.43;;;;;;;16.63;26.09;99904.25;5405714;32;35193;-76
2022/04/19 09:41:59;;;;;;;7.50;4.20;;;;;;;17.03;25.53;99896.94;5400618;32;34599;-68
2022/04/19 09:45:04;;;;;;;8.63;3.90;;;;;;;17.58;24.89;99887.47;5421828;32;35645;-67
2022/04/19 09:48:07;;;;;;;7.45;3.95;;;;;;;16.91;25.76;99888.06;5401783;32;35256;-72
2022/04/19 09:51:10;;;;;;;7.75;3.87;;;;;;;17.78;24.21;99884.19;5391726;32;34306;-70
2022/04/19 09:54:22;;;;;;;7.37;4.10;;;;;;;15.12;27.49;99912.81;5397233;32;35359;-69
2022/04/19 09:57:25;;;;;;;8.30;4.23;;;;;;;15.16;28.00;99901.94;5390271;32;44711;-74
2022/04/19 10:00:27;;;;;;;6.28;3.70;;;;;;;15.44;27.91;99894.78;5415189;32;34011;-74
2022/04/19 10:10:06;;;;;;;6.43;3.78;;;;;;;13.94;29.55;99890.28;5406984;32;34409;-73
2022/04/19 10:13:08;;;;;;;8.02;4.00;;;;;;;13.23;30.78;99898.91;5415997;32;34078;-69
2022/04/19 10:16:12;;;;;;;8.33;4.00;;;;;;;13.67;30.42;99892.81;5401020;32;36187;-67
2022/04/19 10:19:14;;;;;;;6.63;3.90;;;;;;;13.44;31.27;99884.44;5385619;32;35956;-84
2022/04/19 10:22:17;;;;;;;7.95;4.18;;;;;;;14.86;28.72;99890.69;5395137;32;33977;-70
2022/04/19 10:25:19;;;;;;;8.17;4.23;;;;;;;14.42;29.47;99889.03;5386616;32;34122;-74
2022/04/19 10:28:30;;;;;;;9.07;4.07;;;;;;;14.58;29.34;99887.19;5403757;32;45229;-74
2022/04/19 10:31:34;;;;;;;7.87;3.87;;;;;;;15.72;27.78;99869.16;5390117;32;35004;-71
2022/04/19 10:34:39;;;;;;;10.77;4.60;;;;;;;13.50;31.47;99880.59;5406306;32;34119;-76
2022/04/19 10:37:44;;;;;;;8.13;4.20;;;;;;;14.77;29.20;99878.91;5407066;32;35478;-77
2022/04/19 10:40:51;;;;;;;6.83;4.07;;;;;;;14.44;29.65;99878.37;5394016;32;37480;-70
2022/04/19 10:44:23;;;;;;;6.40;3.73;;;;;;;15.89;26.98;99869.66;5397110;32;46857;-68
2022/04/19 10:47:28;;;;;;;7.60;4.50;;;;;;;15.24;28.29;99868.81;5409814;32;44596;-71
2022/04/19 10:50:33;;;;;;;10.77;4.40;;;;;;;14.21;29.92;99879.81;5417390;32;35219;-70
2022/04/19 10:53:35;;;;;;;8.13;4.60;;;;;;;13.49;31.39;99873.63;5410395;32;35716;-70
2022/04/19 10:58:05;;;;;;;8.47;4.30;;;;;;;13.57;31.44;99878.44;5387451;32;34158;-70
2022/04/19 11:00:45;;;;;;;8.97;4.30;;;;;;;13.43;31.29;99874.84;5415768;32;34474;-68
2022/04/19 11:04:03;;;;;;;9.17;4.40;;;;;;;12.96;32.07;99875.78;5415778;32;34235;-70
2022/04/19 11:07:43;;;;;;;8.82;5.18;;;;;;;13.65;30.98;99878.81;5393727;32;34761;-70
2022/04/19 11:10:47;;;;;;;9.73;4.80;;;;;;;12.44;32.87;99880.47;5419272;32;34645;-71
2022/04/19 11:14:17;;;;;;;10.60;5.07;;;;;;;13.50;30.56;99862.13;5386083;32;35424;-74
2022/04/19 11:17:21;;;;;;;8.00;4.47;;;;;;;12.63;32.83;99867.97;5406789;32;33327;-79
2022/04/19 11:20:45;;;;;;;6.43;4.40;;;;;;;14.33;30.36;99873.78;5405686;32;34229;-76
2022/04/19 11:23:49;;;;;;;9.20;4.43;;;;;;;14.37;29.68;99862.06;5397459;32;34012;-74
2022/04/19 11:26:51;;;;;;;9.00;4.93;;;;;;;12.89;32.75;99882.34;5401874;32;44600;-78
2022/04/19 11:29:54;;;;;;;9.23;4.60;;;;;;;12.81;33.20;99879.25;5395376;32;35542;-83
2022/04/19 11:32:58;;;;;;;9.73;5.03;;;;;;;13.48;32.45;99888.63;5412364;32;35456;-74
2022/04/19 11:36:02;;;;;;;8.27;4.87;;;;;;;14.74;30.50;99881.75;5412887;32;34711;-76
2022/04/19 11:39:04;;;;;;;10.50;4.90;;;;;;;14.85;29.78;99879.25;5400957;32;35209;-72
2022/04/19 11:48:50;;;;;;;8.77;4.83;;;;;;;14.74;30.01;99884.38;5402410;32;35483;-76
2022/04/19 11:51:56;;;;;;;9.95;5.22;;;;;;;13.59;32.17;99887.13;5414096;32;46044;-76
2022/04/19 11:54:59;;;;;;;10.30;5.60;;;;;;;14.40;31.27;99892.75;5410264;32;34711;-75
2022/04/19 11:58:08;;;;;;;8.97;5.13;;;;;;;14.65;32.05;99905.28;5398121;32;35196;-81
2022/04/19 12:01:14;;;;;;;9.00;5.20;;;;;;;14.20;33.03;99896.63;5392487;32;34470;-65
2022/04/19 12:04:16;;;;;;;10.00;5.73;;;;;;;13.67;33.75;99900.72;5418736;32;36752;-70
2022/04/19 12:07:19;;;;;;;11.13;5.47;;;;;;;13.31;33.53;99901.09;5409734;32;34705;-74
2022/04/19 12:10:22;;;;;;;;;;;;;;;13.64;32.98;99903.53;5405139;32;44159;-79
2022/04/19 12:13:24;;;;;;;9.00;4.90;;;;;;;13.18;34.47;99907.03;5420943;32;38335;-72
2022/04/19 12:17:03;;;;;;;8.33;4.87;;;;;;;13.03;34.55;99905.28;5394763;32;34763;-68
2022/04/19 12:20:07;;;;;;;10.20;5.00;;;;;;;13.75;33.11;99899.31;5397414;32;34199;-72
2022/04/19 12:23:20;;;;;;;10.10;5.10;;;;;;;13.01;34.56;99912.44;5394992;32;34216;-75
2022/04/19 12:26:24;;;;;;;12.65;5.37;;;;;;;12.00;37.34;99922.38;5379231;32;44584;-74
2022/04/19 12:29:26;;;;;;;16.07;6.20;;;;;;;11.38;38.84;99927.22;5421435;32;33947;-72
2022/04/19 12:32:50;;;;;;;11.70;6.53;;;;;;;12.13;40.14;99924.28;5401223;32;34043;-73
2022/04/19 12:35:53;;;;;;;12.60;6.43;;;;;;;10.87;44.02;99927.97;5422551;32;44596;-73
2022/04/19 12:39:03;;;;;;;11.80;6.30;;;;;;;11.31;43.52;99920.56;5413089;32;34206;-75
2022/04/19 12:42:09;;;;;;;14.37;6.33;;;;;;;11.59;43.10;99923.53;5399127;32;33291;-68
2022/04/19 12:45:12;;;;;;;14.80;6.67;;;;;;;11.18;44.90;99935.25;5394050;32;34358;-79
2022/04/19 12:48:19;;;;;;;11.45;6.10;;;;;;;11.22;45.12;99942.94;5396934;32;35507;-73
2022/04/19 12:51:24;;;;;;;13.00;6.70;;;;;;;10.79;46.70;99934.44;5393984;32;43063;-77
2022/04/19 12:54:30;;;;;;;12.50;7.53;;;;;;;10.07;49.43;99938.63;5397775;32;35378;-74
2022/04/19 12:57:35;;;;;;;13.07;6.73;;;;;;;10.20;49.53;99938.03;5390856;32;35617;-82
2022/04/19 13:00:38;;;;;;;12.33;7.37;;;;;;;10.38;48.05;99936.38;5412182;32;35212;-76
2022/04/19 13:03:40;;;;;;;12.20;6.45;;;;;;;10.84;48.20;99936.88;5410811;32;34184;-69
2022/04/19 13:13:45;;;;;;;10.80;6.67;;;;;;;12.14;43.68;99925.13;5308885;32;34362;-75
2022/04/19 13:16:48;;;;;;;12.40;7.15;;;;;;;11.86;44.24;99923.94;5314971;32;34044;-67
2022/04/19 13:19:50;;;;;;;10.63;6.40;;;;;;;12.05;43.57;99913.28;5405572;32;35311;-70
2022/04/19 13:22:53;;;;;;;15.57;7.47;;;;;;;12.69;42.50;99909.81;5406986;32;44593;-81
2022/04/19 13:27:29;;;;;;;10.10;6.40;;;;;;;12.65;41.91;99912.69;5417475;32;405741;-74
2022/04/19 13:30:31;;;;;;;15.27;7.23;;;;;;;12.41;41.77;99918.38;5414063;32;35981;-74
2022/04/19 13:33:34;;;;;;;14.47;6.47;;;;;;;13.09;40.57;99915.50;5418184;32;33700;-73
2022/04/19 13:36:37;;;;;;;10.60;6.13;;;;;;;11.95;42.60;99916.47;5407823;32;35237;-75
2022/04/19 13:39:40;;;;;;;13.60;5.90;;;;;;;11.92;43.67;99923.63;5417369;32;34077;-84
2022/04/19 13:42:42;;;;;;;10.30;6.40;;;;;;;12.65;41.61;99904.78;5408335;32;34036;-73
2022/04/19 13:45:44;;;;;;;16.03;6.83;;;;;;;12.72;41.88;99914.91;5413219;32;36496;-69
2022/04/19 13:48:47;;;;;;;10.90;5.83;;;;;;;12.49;41.35;99910.03;5415190;32;35133;-67
2022/04/19 13:51:49;;;;;;;11.73;6.70;;;;;;;13.19;39.46;99906.09;5412157;32;34066;-68
2022/04/19 13:54:51;;;;;;;10.50;6.13;;;;;;;12.57;40.90;99902.59;5406092;32;35144;-67
2022/04/19 13:57:55;;;;;;;10.90;5.83;;;;;;;11.22;42.90;99914.00;5361605;32;34005;-77
2022/04/19 14:00:57;;;;;;;11.40;6.33;;;;;;;12.37;41.72;99913.38;5398337;32;33956;-74
2022/04/19 14:04:00;;;;;;;12.53;5.70;;;;;;;12.84;40.41;99923.09;5356955;32;32885;-80
2022/04/19 14:07:02;;;;;;;12.47;6.77;;;;;;;12.92;40.67;99926.13;5381049;32;35413;-68
2022/04/19 14:10:06;;;;;;;12.53;7.47;;;;;;;11.64;45.92;99942.56;5381119;32;34193;-69
2022/04/19 14:13:09;;;;;;;14.73;7.57;;;;;;;11.85;48.56;99951.19;5378837;32;32958;-81
2022/04/19 14:16:11;;;;;;;14.80;6.90;;;;;;;10.49;52.42;99957.75;5359026;32;34918;-79
2022/04/19 14:19:19;;;;;;;9.83;5.73;;;;;;;10.95;51.94;99960.88;5360671;32;35595;-70
2022/04/19 14:22:23;;;;;;;13.53;7.23;;;;;;;9.43;55.35;99966.69;5378845;32;43345;-68
2022/04/19 14:25:26;;;;;;;11.98;7.18;;;;;;;9.39;58.11;99970.34;5378488;32;35605;-81
2022/04/19 14:35:10;;;;;;;13.63;8.37;;;;;;;9.61;60.30;99967.72;5393155;32;34220;-70
2022/04/19 14:38:13;;;;;;;13.83;8.80;;;;;;;9.35;60.48;99966.16;5381092;32;35292;-80
2022/04/19 14:41:19;;;;;;;14.48;8.95;;;;;;;9.60;61.39;99954.66;5364249;32;38589;-80
2022/04/19 14:44:21;;;;;;;15.20;8.57;;;;;;;10.11;59.08;99955.94;5388855;32;45992;-69
2022/04/19 14:47:24;;;;;;;12.40;8.40;;;;;;;10.04;60.60;99956.19;5392499;32;35690;-69
2022/04/19 14:50:26;;;;;;;13.27;7.80;;;;;;;9.44;62.93;99950.03;5373211;32;34659;-69
2022/04/19 14:53:29;;;;;;;14.03;7.80;;;;;;;8.97;63.34;99954.56;5396569;32;34599;-68
2022/04/19 14:56:31;;;;;;;12.20;7.50;;;;;;;8.56;65.26;99964.84;5359927;32;35000;-71
2022/04/19 14:59:33;;;;;;;13.47;8.17;;;;;;;8.89;64.42;99956.66;5378095;32;34067;-81
2022/04/19 15:02:35;;;;;;;14.63;7.67;;;;;;;9.34;64.72;99955.69;5388491;32;34734;-70
2022/04/19 15:05:37;;;;;;;13.93;8.80;;;;;;;8.93;66.13;99964.31;5383878;32;37080;-70
2022/04/19 15:08:40;;;;;;;14.47;9.23;;;;;;;8.87;68.20;99963.69;5370547;32;34573;-69
2022/04/19 15:11:42;;;;;;;15.67;9.10;;;;;;;8.96;67.67;99971.22;5379352;32;37618;-80
2022/04/19 15:14:44;;;;;;;15.70;9.80;;;;;;;9.12;68.66;99968.84;5399797;32;34563;-70